Time,TemperatureF,DewpointF,PressureIn,WindDirection,WindDirectionDegrees,WindSpeedMPH,WindSpeedGustMPH,Humidity,HourlyPrecipIn,Conditions,Clouds,dailyrainin,SoftwareType,DateUTC
2013-03-26 00:07:00,33.4,27.9,29.79,SW,225,1.7,-999.0,80,-99.99,,,0.00,Acu-Link.com,2013-03-26 04:07:00,
2013-03-26 00:23:00,33.3,28.4,29.79,NW,315,2.2,-999.0,82,-99.99,,,0.00,Acu-Link.com,2013-03-26 04:23:00,
2013-03-26 00:38:00,33.3,28.4,29.79,West,270,2.7,-999.0,82,-99.99,,,0.00,Acu-Link.com,2013-03-26 04:38:00,
2013-03-26 00:53:00,33.1,28.2,29.79,North,0,1.1,-999.0,82,-99.99,,,0.00,Acu-Link.com,2013-03-26 04:53:00,
2013-03-26 01:08:00,33.1,27.9,29.79,NNW,337,2.7,-999.0,81,-99.99,,,0.00,Acu-Link.com,2013-03-26 05:08:00,
2013-03-26 01:24:00,33.1,27.6,29.79,NW,315,2.7,-999.0,80,-99.99,,,0.00,Acu-Link.com,2013-03-26 05:24:00,
2013-03-26 01:39:00,33.1,27.6,29.79,NW,315,1.7,-999.0,80,-99.99,,,0.00,Acu-Link.com,2013-03-26 05:39:00,
2013-03-26 01:54:00,33.3,27.8,29.80,WNW,292,2.2,-999.0,80,-99.99,,,0.00,Acu-Link.com,2013-03-26 05:54:00,
2013-03-26 02:10:00,33.1,27.6,29.80,West,270,3.7,-999.0,80,-99.99,,,0.00,Acu-Link.com,2013-03-26 06:10:00,
2013-03-26 02:25:00,33.1,27.6,29.80,WNW,292,2.7,-999.0,80,-99.99,,,0.00,Acu-Link.com,2013-03-26 06:25:00,
2013-03-26 02:40:00,33.1,27.6,29.80,West,270,1.7,-999.0,80,-99.99,,,0.00,Acu-Link.com,2013-03-26 06:40:00,
2013-03-26 02:56:00,32.9,27.1,29.81,North,0,1.7,-999.0,79,-99.99,,,0.00,Acu-Link.com,2013-03-26 06:56:00,
2013-03-26 03:26:00,32.7,27.2,29.81,North,0,2.2,-999.0,80,-99.99,,,0.00,Acu-Link.com,2013-03-26 07:26:00,
2013-03-26 03:41:00,32.5,27.0,29.81,NW,315,1.1,-999.0,80,-99.99,,,0.00,Acu-Link.com,2013-03-26 07:41:00,
2013-03-26 03:57:00,32.5,27.3,29.80,NW,315,3.2,-999.0,81,-99.99,,,0.00,Acu-Link.com,2013-03-26 07:57:00,
2013-03-26 04:12:00,32.4,27.2,29.81,NW,315,2.7,-999.0,81,-99.99,,,0.00,Acu-Link.com,2013-03-26 08:12:00,
2013-03-26 04:27:00,32.4,27.5,29.81,NNW,337,2.7,-999.0,82,-99.99,,,0.00,Acu-Link.com,2013-03-26 08:27:00,
2013-03-26 04:43:00,32.2,27.6,29.81,North,0,1.1,-999.0,83,-99.99,,,0.00,Acu-Link.com,2013-03-26 08:43:00,
2013-03-26 04:58:00,32.0,27.4,29.81,SW,225,1.1,-999.0,83,-99.99,,,0.00,Acu-Link.com,2013-03-26 08:58:00,
2013-03-26 05:13:00,32.0,27.7,29.82,NNW,337,2.2,-999.0,84,-99.99,,,0.00,Acu-Link.com,2013-03-26 09:13:00,
2013-03-26 05:28:00,31.8,27.5,29.82,NNW,337,1.7,-999.0,84,-99.99,,,0.00,Acu-Link.com,2013-03-26 09:28:00,
2013-03-26 05:44:00,31.6,27.6,29.82,WNW,292,2.7,-999.0,85,-99.99,,,0.00,Acu-Link.com,2013-03-26 09:44:00,
2013-03-26 05:59:00,31.6,27.6,29.83,WNW,292,2.7,-999.0,85,-99.99,,,0.00,Acu-Link.com,2013-03-26 09:59:00,
2013-03-26 06:14:00,31.5,27.8,29.83,WNW,292,1.1,-999.0,86,-99.99,,,0.00,Acu-Link.com,2013-03-26 10:14:00,
2013-03-26 06:30:00,31.5,28.1,29.83,West,270,2.7,-999.0,87,-99.99,,,0.00,Acu-Link.com,2013-03-26 10:30:00,
2013-03-26 06:45:00,31.3,27.9,29.84,NW,315,1.7,-999.0,87,-99.99,,,0.00,Acu-Link.com,2013-03-26 10:45:00,
2013-03-26 07:00:00,31.3,28.2,29.84,NNW,337,2.2,-999.0,88,-99.99,,,0.00,Acu-Link.com,2013-03-26 11:00:00,
2013-03-26 07:15:00,31.1,28.2,29.84,NNE,22,3.7,-999.0,89,-99.99,,,0.00,Acu-Link.com,2013-03-26 11:15:00,
2013-03-26 07:31:00,31.1,28.2,29.85,NW,315,2.7,-999.0,89,-99.99,,,0.00,Acu-Link.com,2013-03-26 11:31:00,
2013-03-26 07:46:00,31.1,28.2,29.86,WNW,292,2.7,-999.0,89,-99.99,,,0.00,Acu-Link.com,2013-03-26 11:46:00,
2013-03-26 08:17:00,31.3,28.4,29.87,NNE,22,1.7,-999.0,89,-99.99,,,0.00,Acu-Link.com,2013-03-26 12:17:00,
2013-03-26 08:32:00,31.6,28.7,29.88,WNW,292,2.2,-999.0,89,-99.99,,,0.00,Acu-Link.com,2013-03-26 12:32:00,
2013-03-26 08:47:00,32.0,28.9,29.88,NW,315,2.7,-999.0,88,-99.99,,,0.00,Acu-Link.com,2013-03-26 12:47:00,
2013-03-26 09:03:00,32.4,29.0,29.88,North,0,1.7,-999.0,87,-99.99,,,0.00,Acu-Link.com,2013-03-26 13:03:00,
2013-03-26 09:18:00,32.9,29.2,29.88,WNW,292,2.2,-999.0,86,-99.99,,,0.00,Acu-Link.com,2013-03-26 13:18:00,
2013-03-26 09:33:00,33.4,29.4,29.89,NW,315,2.7,-999.0,85,-99.99,,,0.00,Acu-Link.com,2013-03-26 13:33:00,
2013-03-26 09:48:00,34.2,29.9,29.89,NW,315,2.2,-999.0,84,-99.99,,,0.00,Acu-Link.com,2013-03-26 13:48:00,
2013-03-26 10:03:00,34.9,30.0,29.90,NW,315,3.2,-999.0,82,-99.99,,,0.00,Acu-Link.com,2013-03-26 14:03:00,
2013-03-26 10:18:00,35.8,30.2,29.90,SW,225,3.7,-999.0,80,-99.99,,,0.00,Acu-Link.com,2013-03-26 14:18:00,
2013-03-26 10:34:00,34.9,30.0,29.90,NNE,22,3.7,-999.0,82,-99.99,,,0.00,Acu-Link.com,2013-03-26 14:34:00,
2013-03-26 10:49:00,36.0,30.7,29.90,West,270,3.7,-999.0,81,-99.99,,,0.00,Acu-Link.com,2013-03-26 14:49:00,
2013-03-26 11:04:00,39.0,31.8,29.90,NNW,337,4.2,-999.0,75,-99.99,,,0.00,Acu-Link.com,2013-03-26 15:04:00,
2013-03-26 11:19:00,39.6,32.0,29.90,NW,315,1.7,-999.0,74,-99.99,,,0.00,Acu-Link.com,2013-03-26 15:19:00,
2013-03-26 11:34:00,39.9,31.6,29.90,North,0,4.7,-999.0,72,-99.99,,,0.00,Acu-Link.com,2013-03-26 15:34:00,
2013-03-26 11:50:00,40.5,32.2,29.91,North,0,5.3,-999.0,72,-99.99,,,0.00,Acu-Link.com,2013-03-26 15:50:00,
2013-03-26 12:05:00,41.4,31.3,29.91,SW,225,1.7,-999.0,67,-99.99,,,0.00,Acu-Link.com,2013-03-26 16:05:00,
2013-03-26 12:20:00,40.8,31.4,29.91,WNW,292,4.2,-999.0,69,-99.99,,,0.00,Acu-Link.com,2013-03-26 16:20:00,
2013-03-26 12:35:00,41.4,32.0,29.91,WNW,292,3.2,-999.0,69,-99.99,,,0.00,Acu-Link.com,2013-03-26 16:35:00,
2013-03-26 12:50:00,40.3,31.7,29.91,WNW,292,1.7,-999.0,71,-99.99,,,0.00,Acu-Link.com,2013-03-26 16:50:00,
2013-03-26 13:05:00,39.7,31.8,29.91,North,0,2.7,-999.0,73,-99.99,,,0.00,Acu-Link.com,2013-03-26 17:05:00,
2013-03-26 13:21:00,40.5,31.5,29.90,NNW,337,5.8,-999.0,70,-99.99,,,0.00,Acu-Link.com,2013-03-26 17:21:00,
2013-03-26 13:36:00,40.5,30.4,29.91,North,0,2.7,-999.0,67,-99.99,,,0.00,Acu-Link.com,2013-03-26 17:36:00,
2013-03-26 14:06:00,42.6,30.5,29.90,SW,225,2.7,-999.0,62,-99.99,,,0.00,Acu-Link.com,2013-03-26 18:06:00,
2013-03-26 14:21:00,42.6,30.5,29.90,West,270,5.3,-999.0,62,-99.99,,,0.00,Acu-Link.com,2013-03-26 18:21:00,
2013-03-26 14:37:00,42.1,29.2,29.89,North,0,3.7,-999.0,60,-99.99,,,0.00,Acu-Link.com,2013-03-26 18:37:00,
2013-03-26 14:52:00,44.6,29.4,29.89,West,270,4.2,-999.0,55,-99.99,,,0.00,Acu-Link.com,2013-03-26 18:52:00,
2013-03-26 15:07:00,43.7,28.6,29.89,NNW,337,8.3,-999.0,55,-99.99,,,0.00,Acu-Link.com,2013-03-26 19:07:00,
2013-03-26 15:22:00,38.5,31.3,29.90,East,90,2.2,-999.0,75,-99.99,,,0.00,Acu-Link.com,2013-03-26 19:22:00,
2013-03-26 15:53:00,38.5,31.3,29.90,NE,45,3.2,-999.0,75,-99.99,,,0.00,Acu-Link.com,2013-03-26 19:53:00,
2013-03-26 16:08:00,39.9,32.0,29.90,ESE,112,1.7,-999.0,73,-99.99,,,0.00,Acu-Link.com,2013-03-26 20:08:00,
2013-03-26 16:23:00,40.8,32.1,29.90,SSW,202,0.0,-999.0,71,-99.99,,,0.00,Acu-Link.com,2013-03-26 20:23:00,
2013-03-26 16:39:00,41.7,29.3,29.89,NW,315,2.2,-999.0,61,-99.99,,,0.00,Acu-Link.com,2013-03-26 20:39:00,
2013-03-26 16:54:00,39.0,31.1,29.91,NNE,22,3.2,-999.0,73,-99.99,,,0.00,Acu-Link.com,2013-03-26 20:54:00,
2013-03-26 17:09:00,37.4,30.9,29.91,NNW,337,7.8,-999.0,77,-99.99,,,0.00,Acu-Link.com,2013-03-26 21:09:00,
2013-03-26 17:24:00,36.9,31.3,29.91,NNE,22,4.2,-999.0,80,-99.99,,,0.00,Acu-Link.com,2013-03-26 21:24:00,
2013-03-26 17:39:00,36.1,31.4,29.92,NNW,337,0.0,-999.0,83,-99.99,,,0.00,Acu-Link.com,2013-03-26 21:39:00,
2013-03-26 17:55:00,36.5,31.2,29.92,NE,45,2.2,-999.0,81,-99.99,,,0.00,Acu-Link.com,2013-03-26 21:55:00,
2013-03-26 18:10:00,36.7,31.1,29.92,North,0,3.2,-999.0,80,-99.99,,,0.00,Acu-Link.com,2013-03-26 22:10:00,
2013-03-26 18:25:00,37.2,31.6,29.92,West,270,3.7,-999.0,80,-99.99,,,0.00,Acu-Link.com,2013-03-26 22:25:00,
2013-03-26 18:41:00,37.2,31.6,29.92,NW,315,1.1,-999.0,80,-99.99,,,0.00,Acu-Link.com,2013-03-26 22:41:00,
2013-03-26 19:11:00,36.5,31.2,29.93,WNW,292,0.0,-999.0,81,-99.99,,,0.00,Acu-Link.com,2013-03-26 23:11:00,
2013-03-26 19:27:00,36.3,31.3,29.93,West,270,0.0,-999.0,82,-99.99,,,0.00,Acu-Link.com,2013-03-26 23:27:00,
2013-03-26 19:42:00,36.0,30.7,29.93,West,270,1.7,-999.0,81,-99.99,,,0.00,Acu-Link.com,2013-03-26 23:42:00,
2013-03-26 19:57:00,36.0,29.8,29.93,WNW,292,2.2,-999.0,78,-99.99,,,0.00,Acu-Link.com,2013-03-26 23:57:00,
2013-03-26 20:12:00,36.0,29.2,29.94,West,270,2.2,-999.0,76,-99.99,,,0.00,Acu-Link.com,2013-03-27 00:12:00,
2013-03-26 20:28:00,35.8,28.7,29.94,WSW,247,3.2,-999.0,75,-99.99,,,0.00,Acu-Link.com,2013-03-27 00:28:00,
2013-03-26 20:43:00,35.6,28.5,29.95,West,270,2.2,-999.0,75,-99.99,,,0.00,Acu-Link.com,2013-03-27 00:43:00,
2013-03-26 20:58:00,35.6,28.8,29.95,NW,315,1.7,-999.0,76,-99.99,,,0.00,Acu-Link.com,2013-03-27 00:58:00,
2013-03-26 21:13:00,35.6,29.4,29.95,NW,315,3.2,-999.0,78,-99.99,,,0.00,Acu-Link.com,2013-03-27 01:13:00,
2013-03-26 21:29:00,35.6,29.4,29.96,NW,315,2.2,-999.0,78,-99.99,,,0.00,Acu-Link.com,2013-03-27 01:29:00,
2013-03-26 21:44:00,35.6,30.1,29.96,NW,315,2.7,-999.0,80,-99.99,,,0.00,Acu-Link.com,2013-03-27 01:44:00,
2013-03-26 21:59:00,35.4,29.9,29.96,West,270,1.7,-999.0,80,-99.99,,,0.00,Acu-Link.com,2013-03-27 01:59:00,
2013-03-26 22:14:00,35.2,30.0,29.97,West,270,2.2,-999.0,81,-99.99,,,0.00,Acu-Link.com,2013-03-27 02:14:00,
2013-03-26 22:29:00,35.1,30.2,29.97,West,270,2.2,-999.0,82,-99.99,,,0.00,Acu-Link.com,2013-03-27 02:29:00,
2013-03-26 22:45:00,34.9,30.0,29.97,West,270,4.2,-999.0,82,-99.99,,,0.00,Acu-Link.com,2013-03-27 02:45:00,
2013-03-26 23:00:00,34.7,29.8,29.97,NNE,22,2.2,-999.0,82,-99.99,,,0.00,Acu-Link.com,2013-03-27 03:00:00,
2013-03-26 23:15:00,34.7,29.8,29.97,WNW,292,2.7,-999.0,82,-99.99,,,0.00,Acu-Link.com,2013-03-27 03:15:00,
2013-03-26 23:30:00,34.7,29.2,29.97,WNW,292,1.1,-999.0,80,-99.99,,,0.00,Acu-Link.com,2013-03-27 03:30:00,
2013-03-26 23:45:00,34.3,28.8,29.98,West,270,2.7,-999.0,80,-99.99,,,0.00,Acu-Link.com,2013-03-27 03:45:00,